Time;durP1;ratioP1;P1;durP2;ratioP2;P2;SDS_P1;SDS_P2;PMS_P1;PMS_P2;Temp;Humidity;BMP_temperature;BMP_pressure;BME280_temperature;BME280_humidity;BME280_pressure;Samples;Min_cycle;Max_cycle;Signal;HPM_P1;HPM_P2
2023/01/01 00:00:59;;;;;;;;;;;;;;;;;;5010917;28;4858;-69
2023/01/01 00:03:24;;;;;;;;;;;;;;;;;;4996982;28;5017;-69
2023/01/01 00:05:49;;;;;;;;;;;;;;;;;;4990305;28;5343;-66
2023/01/01 00:08:15;;;;;;;;;;;;;;;;;;4987474;28;4908;-68
2023/01/01 00:10:40;;;;;;;;;;;;;;;;;;5002658;28;3287;-69
2023/01/01 00:13:05;;;;;;;;;;;;;;;;;;4990653;28;4899;-69
2023/01/01 00:15:30;;;;;;;;;;;;;;;;;;5004576;28;5178;-69
2023/01/01 00:17:56;;;;;;;;;;;;;;;;;;5000826;28;5071;-67
2023/01/01 00:20:21;;;;;;;;;;;;;;;;;;4990924;28;5058;-71
2023/01/01 00:22:47;;;;;;;;;;;;;;;;;;4990854;28;1166;-71
2023/01/01 00:25:16;;;;;;;;;;;;;;;;;;5004032;28;4426;-71
2023/01/01 00:27:41;;;;;;;;;;;;;;;;;;5006351;28;4978;-69
2023/01/01 00:30:07;;;;;;;;;;;;;;;;;;4991811;28;5533;-71
2023/01/01 00:32:33;;;;;;;;;;;;;;;;;;4988403;28;5201;-70
2023/01/01 00:34:58;;;;;;;;;;;;;;;;;;4991065;28;5075;-65
2023/01/01 00:37:23;;;;;;;;;;;;;;;;;;4986417;28;1101;-68
2023/01/01 00:39:48;;;;;;;;;;;;;;;;;;4989195;28;4903;-68
2023/01/01 00:42:14;;;;;;;;;;;;;;;;;;4999359;28;4879;-68
2023/01/01 00:44:39;;;;;;;;;;;;;;;;;;5004280;28;5059;-69
2023/01/01 00:47:04;;;;;;;;;;;;;;;;;;4991993;28;5093;-69
2023/01/01 00:49:29;;;;;;;;;;;;;;;;;;5011073;28;2429;-71
2023/01/01 00:51:55;;;;;;;;;;;;;;;;;;5010578;28;5154;-70
2023/01/01 00:54:20;;;;;;;;;;;;;;;;;;5002558;28;4656;-69
2023/01/01 00:56:45;;;;;;;;;;;;;;;;;;5006829;28;5063;-71
2023/01/01 00:59:10;;;;;;;;;;;;;;;;;;5004472;28;5125;-72
2023/01/01 01:01:36;;;;;;;;;;;;;;;;;;5010803;28;1135;-66
2023/01/01 01:04:04;;;;;;;;;;;;;;;;;;5006285;28;4444;-70
2023/01/01 01:06:29;;;;;;;;;;;;;;;;;;5009743;28;4971;-67
2023/01/01 01:08:54;;;;;;;;;;;;;;;;;;5003858;28;4593;-68
2023/01/01 01:11:20;;;;;;;;;;;;;;;;;;5010348;28;5105;-70
2023/01/01 01:13:46;;;;;;;;;;;;;;;;;;5006557;28;2303;-70
2023/01/01 01:16:15;;;;;;;;;;;;;;;;;;5010363;28;5033;-70
2023/01/01 01:18:41;;;;;;;;;;;;;;;;;;4995596;28;4563;-68
2023/01/01 01:21:06;;;;;;;;;;;;;;;;;;4989225;28;5153;-70
2023/01/01 01:23:31;;;;;;;;;;;;;;;;;;4980334;28;5099;-65
2023/01/01 01:26:12;;;;;;;;;;;;;;;;;;4997802;28;4599;-60
2023/01/01 01:28:38;;;;;;;;;;;;;;;;;;4989202;28;3611;-56
2023/01/01 01:31:03;;;;;;;;;;;;;;;;;;4994948;28;5026;-59
2023/01/01 01:33:28;;;;;;;;;;;;;;;;;;4978725;28;4495;-64
2023/01/01 01:35:54;;;;;;;;;;;;;;;;;;4993971;28;4693;-65
2023/01/01 01:38:19;;;;;;;;;;;;;;;;;;5006277;28;5211;-66
2023/01/01 01:40:44;;;;;;;;;;;;;;;;;;4984961;28;1074;-66
2023/01/01 01:43:28;;;;;;;;;;;;;;;;;;4984560;28;4609;-66
2023/01/01 01:45:57;;;;;;;;;;;;;;;;;;4997044;28;5055;-66
2023/01/01 01:48:23;;;;;;;;;;;;;;;;;;4998499;28;5256;-62
2023/01/01 01:50:48;;;;;;;;;;;;;;;;;;4996632;28;5306;-68
2023/01/01 01:53:26;;;;;;;;;;;;;;;;;;4996036;28;5158;-65
2023/01/01 01:56:01;;;;;;;;;;;;;;;;;;5001115;28;3492;-66
2023/01/01 01:58:27;;;;;;;;;;;;;;;;;;5001999;28;4453;-67
2023/01/01 02:00:53;;;;;;;;;;;;;;;;;;4997989;28;4876;-66
2023/01/01 02:03:22;;;;;;;;;;;;;;;;;;5003756;28;5040;-66
2023/01/01 02:05:47;;;;;;;;;;;;;;;;;;5005146;28;4461;-64
2023/01/01 02:08:14;;;;;;;;;;;;;;;;;;4998720;28;5103;-64
2023/01/01 02:10:39;;;;;;;;;;;;;;;;;;4998688;28;3754;-65
2023/01/01 02:13:05;;;;;;;;;;;;;;;;;;4984766;28;4439;-64
2023/01/01 02:15:32;;;;;;;;;;;;;;;;;;4986365;28;6056;-65
2023/01/01 02:17:57;;;;;;;;;;;;;;;;;;4983131;28;5126;-65
2023/01/01 02:20:33;;;;;;;;;;;;;;;;;;4980222;28;5089;-65
2023/01/01 02:23:17;;;;;;;;;;;;;;;;;;4999489;28;5356;-63
2023/01/01 02:26:00;;;;;;;;;;;;;;;;;;5006038;28;3476;-65
2023/01/01 02:28:28;;;;;;;;;;;;;;;;;;5005001;28;4416;-65
2023/01/01 02:30:53;;;;;;;;;;;;;;;;;;5003956;28;5297;-64
2023/01/01 02:33:20;;;;;;;;;;;;;;;;;;4989537;28;5362;-67
2023/01/01 02:35:50;;;;;;;;;;;;;;;;;;5007931;28;5156;-62
2023/01/01 02:38:29;;;;;;;;;;;;;;;;;;5001305;28;5335;-64
2023/01/01 02:41:20;;;;;;;;;;;;;;;;;;5006255;28;4585;-63
2023/01/01 02:43:45;;;;;;;;;;;;;;;;;;4999048;28;3279;-63
2023/01/01 02:46:11;;;;;;;;;;;;;;;;;;5005455;28;5159;-64
2023/01/01 02:48:49;;;;;;;;;;;;;;;;;;5002533;28;5027;-66
2023/01/01 02:51:33;;;;;;;;;;;;;;;;;;5003994;28;5128;-74
2023/01/01 02:53:58;;;;;;;;;;;;;;;;;;4998575;28;5167;-63
2023/01/01 02:56:26;;;;;;;;;;;;;;;;;;4976488;28;5181;-63
2023/01/01 03:01:53;;;;;;;;;;;;;;;;;;4979285;28;5519;-65
2023/01/01 03:04:24;;;;;;;;;;;;;;;;;;4975428;28;4555;-65
2023/01/01 03:07:05;;;;;;;;;;;;;;;;;;4975702;28;4978;-65
2023/01/01 03:09:36;;;;;;;;;;;;;;;;;;4971618;28;5087;-68
2023/01/01 03:12:05;;;;;;;;;;;;;;;;;;4982995;28;5103;-66
2023/01/01 03:15:00;;;;;;;;;;;;;;;;;;4982905;28;4770;-66
2023/01/01 03:17:32;;;;;;;;;;;;;;;;;;4976618;28;4581;-68
2023/01/01 03:19:57;;;;;;;;;;;;;;;;;;4985775;28;5142;-63
2023/01/01 03:22:27;;;;;;;;;;;;;;;;;;4992302;28;3495;-67
2023/01/01 03:24:54;;;;;;;;;;;;;;;;;;5000518;28;5175;-67
2023/01/01 03:27:24;;;;;;;;;;;;;;;;;;5005214;28;4977;-65
2023/01/01 03:29:50;;;;;;;;;;;;;;;;;;5000497;28;4488;-66
2023/01/01 03:32:18;;;;;;;;;;;;;;;;;;4999830;28;5193;-65
2023/01/01 03:34:46;;;;;;;;;;;;;;;;;;5003743;28;3463;-62
2023/01/01 03:37:13;;;;;;;;;;;;;;;;;;5000447;28;5045;-66
2023/01/01 03:39:46;;;;;;;;;;;;;;;;;;4999799;28;5148;-66
2023/01/01 03:42:18;;;;;;;;;;;;;;;;;;5003031;28;4650;-66
2023/01/01 03:44:45;;;;;;;;;;;;;;;;;;4995745;28;4693;-65
2023/01/01 03:47:10;;;;;;;;;;;;;;;;;;4985233;28;5376;-65
2023/01/01 03:49:35;;;;;;;;;;;;;;;;;;5003458;28;3557;-64
2023/01/01 03:52:04;;;;;;;;;;;;;;;;;;5001751;28;5115;-65
2023/01/01 03:54:32;;;;;;;;;;;;;;;;;;5005119;28;5082;-63
2023/01/01 03:57:17;;;;;;;;;;;;;;;;;;5001942;28;4983;-65
2023/01/01 03:59:47;;;;;;;;;;;;;;;;;;4992708;28;4949;-64
2023/01/01 04:02:13;;;;;;;;;;;;;;;;;;5002727;28;4941;-65
2023/01/01 04:04:38;;;;;;;;;;;;;;;;;;5005991;28;1501;-65
2023/01/01 04:07:04;;;;;;;;;;;;;;;;;;5002155;28;5138;-63
2023/01/01 04:09:29;;;;;;;;;;;;;;;;;;5003706;28;4995;-65
2023/01/01 04:12:02;;;;;;;;;;;;;;;;;;4988219;28;4969;-65
2023/01/01 04:14:28;;;;;;;;;;;;;;;;;;4985668;28;5107;-65
2023/01/01 04:16:55;;;;;;;;;;;;;;;;;;4989248;28;4988;-58
2023/01/01 04:19:20;;;;;;;;;;;;;;;;;;4982518;28;4500;-67
2023/01/01 04:21:45;;;;;;;;;;;;;;;;;;4983454;28;5099;-64
2023/01/01 04:24:10;;;;;;;;;;;;;;;;;;4995585;28;5090;-64
2023/01/01 04:26:35;;;;;;;;;;;;;;;;;;4999505;28;4911;-62
2023/01/01 04:29:01;;;;;;;;;;;;;;;;;;4982509;28;5041;-70
2023/01/01 04:31:26;;;;;;;;;;;;;;;;;;5005681;28;3360;-64
2023/01/01 04:33:54;;;;;;;;;;;;;;;;;;5020488;28;4987;-71
2023/01/01 04:36:19;;;;;;;;;;;;;;;;;;4998728;28;4918;-67
2023/01/01 04:38:45;;;;;;;;;;;;;;;;;;5004478;28;4956;-66
2023/01/01 04:41:10;;;;;;;;;;;;;;;;;;5002957;28;5219;-63
2023/01/01 04:43:35;;;;;;;;;;;;;;;;;;5003865;28;3316;-71
2023/01/01 04:46:01;;;;;;;;;;;;;;;;;;5009542;28;4888;-72
2023/01/01 04:48:26;;;;;;;;;;;;;;;;;;5008560;28;4574;-69
2023/01/01 04:51:02;;;;;;;;;;;;;;;;;;5008149;28;5459;-66
2023/01/01 04:53:28;;;;;;;;;;;;;;;;;;5002132;28;5163;-68
2023/01/01 04:55:53;;;;;;;;;;;;;;;;;;5010715;28;1115;-67
2023/01/01 04:58:18;;;;;;;;;;;;;;;;;;5001472;28;4811;-68
2023/01/01 05:00:47;;;;;;;;;;;;;;;;;;5008847;28;4980;-66
2023/01/01 05:03:12;;;;;;;;;;;;;;;;;;5002644;28;4522;-65
2023/01/01 05:05:37;;;;;;;;;;;;;;;;;;5007809;28;5241;-65
2023/01/01 05:08:02;;;;;;;;;;;;;;;;;;5006217;28;5202;-62
2023/01/01 05:10:28;;;;;;;;;;;;;;;;;;5006255;28;3400;-65
2023/01/01 05:12:53;;;;;;;;;;;;;;;;;;5002497;28;5016;-65
2023/01/01 05:15:18;;;;;;;;;;;;;;;;;;5002744;28;4449;-68
2023/01/01 05:17:43;;;;;;;;;;;;;;;;;;5004344;28;4662;-67
2023/01/01 05:20:09;;;;;;;;;;;;;;;;;;5000169;28;5184;-67
2023/01/01 05:22:34;;;;;;;;;;;;;;;;;;4995600;28;3969;-68
2023/01/01 05:24:59;;;;;;;;;;;;;;;;;;4997602;28;5132;-70
2023/01/01 05:27:24;;;;;;;;;;;;;;;;;;4998749;28;4994;-70
2023/01/01 05:29:50;;;;;;;;;;;;;;;;;;4987962;28;4975;-67
2023/01/01 05:32:15;;;;;;;;;;;;;;;;;;5001090;28;4638;-59
2023/01/01 05:34:40;;;;;;;;;;;;;;;;;;5006528;28;3518;-69
2023/01/01 05:37:05;;;;;;;;;;;;;;;;;;4999658;28;5092;-68
2023/01/01 05:39:31;;;;;;;;;;;;;;;;;;5004807;28;5168;-70
2023/01/01 05:41:56;;;;;;;;;;;;;;;;;;5002708;28;4691;-64
2023/01/01 05:44:21;;;;;;;;;;;;;;;;;;5005386;28;5084;-69
2023/01/01 05:46:46;;;;;;;;;;;;;;;;;;5007801;28;3395;-60
2023/01/01 05:49:12;;;;;;;;;;;;;;;;;;5004672;28;4518;-69
2023/01/01 05:51:37;;;;;;;;;;;;;;;;;;5008613;28;4907;-67
2023/01/01 05:54:02;;;;;;;;;;;;;;;;;;5003048;28;5074;-66
2023/01/01 05:56:28;;;;;;;;;;;;;;;;;;5004102;28;5165;-66
2023/01/01 05:58:54;;;;;;;;;;;;;;;;;;5006100;28;1973;-69
2023/01/01 06:01:20;;;;;;;;;;;;;;;;;;5007728;28;4509;-67
2023/01/01 06:03:47;;;;;;;;;;;;;;;;;;5005944;28;5107;-67
2023/01/01 06:06:13;;;;;;;;;;;;;;;;;;5005689;28;5154;-68
2023/01/01 06:08:39;;;;;;;;;;;;;;;;;;5005708;28;5076;-70
2023/01/01 06:11:04;;;;;;;;;;;;;;;;;;5006552;28;5112;-64
2023/01/01 06:13:30;;;;;;;;;;;;;;;;;;4975983;28;3541;-62
2023/01/01 06:15:56;;;;;;;;;;;;;;;;;;5003270;28;4973;-66
2023/01/01 06:18:21;;;;;;;;;;;;;;;;;;5001173;28;4929;-65
2023/01/01 06:20:46;;;;;;;;;;;;;;;;;;5000636;28;5196;-66
2023/01/01 06:23:12;;;;;;;;;;;;;;;;;;5007404;28;4654;-66
2023/01/01 06:25:37;;;;;;;;;;;;;;;;;;5006434;28;2416;-66
2023/01/01 06:28:02;;;;;;;;;;;;;;;;;;5004205;28;4844;-64
2023/01/01 06:30:27;;;;;;;;;;;;;;;;;;5003248;28;4936;-65
2023/01/01 06:32:53;;;;;;;;;;;;;;;;;;4999518;28;5100;-65
2023/01/01 06:35:18;;;;;;;;;;;;;;;;;;5000454;28;5153;-64
2023/01/01 06:37:43;;;;;;;;;;;;;;;;;;5009260;28;1098;-67
2023/01/01 06:40:08;;;;;;;;;;;;;;;;;;4994919;28;5179;-66
2023/01/01 06:42:34;;;;;;;;;;;;;;;;;;5005902;28;4765;-65
2023/01/01 06:44:59;;;;;;;;;;;;;;;;;;5001122;28;4997;-64
2023/01/01 06:47:24;;;;;;;;;;;;;;;;;;5004557;28;4687;-66
2023/01/01 06:49:50;;;;;;;;;;;;;;;;;;5002673;28;3347;-64
2023/01/01 06:52:15;;;;;;;;;;;;;;;;;;4996812;28;5012;-65
2023/01/01 06:54:40;;;;;;;;;;;;;;;;;;5000406;28;5187;-64
2023/01/01 06:57:05;;;;;;;;;;;;;;;;;;4992299;28;5006;-66
2023/01/01 06:59:31;;;;;;;;;;;;;;;;;;4980301;28;5111;-64
2023/01/01 07:01:56;;;;;;;;;;;;;;;;;;4981715;28;5286;-63
2023/01/01 07:04:21;;;;;;;;;;;;;;;;;;4979939;28;3531;-63
2023/01/01 07:06:46;;;;;;;;;;;;;;;;;;4995973;28;5014;-62
2023/01/01 07:09:12;;;;;;;;;;;;;;;;;;4993179;28;5024;-66
2023/01/01 07:11:37;;;;;;;;;;;;;;;;;;4980591;28;5124;-67
2023/01/01 07:14:02;;;;;;;;;;;;;;;;;;4995904;28;5749;-66
2023/01/01 07:16:27;;;;;;;;;;;;;;;;;;5002452;28;3292;-67
2023/01/01 07:18:53;;;;;;;;;;;;;;;;;;5001308;28;4498;-66
2023/01/01 07:21:23;;;;;;;;;;;;;;;;;;4999622;28;5239;-66
2023/01/01 07:23:48;;;;;;;;;;;;;;;;;;5002736;28;4968;-68
2023/01/01 07:26:14;;;;;;;;;;;;;;;;;;5003095;28;5136;-67
2023/01/01 07:28:39;;;;;;;;;;;;;;;;;;5000891;28;3308;-67
2023/01/01 07:31:04;;;;;;;;;;;;;;;;;;5003012;28;4621;-66
2023/01/01 07:33:29;;;;;;;;;;;;;;;;;;4995513;28;5046;-66
2023/01/01 07:35:54;;;;;;;;;;;;;;;;;;5005600;28;5086;-67
2023/01/01 07:38:20;;;;;;;;;;;;;;;;;;4998277;28;5072;-67
2023/01/01 07:40:45;;;;;;;;;;;;;;;;;;5006221;28;3261;-67
2023/01/01 07:43:13;;;;;;;;;;;;;;;;;;4987338;28;4955;-65
2023/01/01 07:45:38;;;;;;;;;;;;;;;;;;4998567;28;4553;-66
2023/01/01 07:48:04;;;;;;;;;;;;;;;;;;5004039;28;5131;-66
2023/01/01 07:50:29;;;;;;;;;;;;;;;;;;5007336;28;5135;-66
2023/01/01 07:52:55;;;;;;;;;;;;;;;;;;5000379;28;4902;-59
2023/01/01 07:55:20;;;;;;;;;;;;;;;;;;5008080;28;3597;-68
2023/01/01 07:57:46;;;;;;;;;;;;;;;;;;5002643;28;4518;-63
2023/01/01 08:00:12;;;;;;;;;;;;;;;;;;5005154;28;5238;-67
2023/01/01 08:02:37;;;;;;;;;;;;;;;;;;5002535;28;5085;-66
2023/01/01 08:05:03;;;;;;;;;;;;;;;;;;5001483;28;4483;-65
2023/01/01 08:07:28;;;;;;;;;;;;;;;;;;5005387;28;3391;-68
2023/01/01 08:09:53;;;;;;;;;;;;;;;;;;5008305;28;5077;-66
2023/01/01 08:12:19;;;;;;;;;;;;;;;;;;5004156;28;4895;-66
2023/01/01 08:14:44;;;;;;;;;;;;;;;;;;5008645;28;5055;-65
2023/01/01 08:17:09;;;;;;;;;;;;;;;;;;5006596;28;4682;-66
2023/01/01 08:19:34;;;;;;;;;;;;;;;;;;5004847;28;4633;-66
2023/01/01 08:21:59;;;;;;;;;;;;;;;;;;5009842;28;4859;-67
2023/01/01 08:24:25;;;;;;;;;;;;;;;;;;5009617;28;4964;-66
2023/01/01 08:26:50;;;;;;;;;;;;;;;;;;5009732;28;5156;-67
2023/01/01 08:29:16;;;;;;;;;;;;;;;;;;5005024;28;5037;-68
2023/01/01 08:31:41;;;;;;;;;;;;;;;;;;5005887;28;3354;-66
2023/01/01 08:34:06;;;;;;;;;;;;;;;;;;4998115;28;4433;-68
2023/01/01 08:36:31;;;;;;;;;;;;;;;;;;5008978;28;4685;-66
2023/01/01 08:38:57;;;;;;;;;;;;;;;;;;5001658;28;5087;-65
2023/01/01 08:41:22;;;;;;;;;;;;;;;;;;5002296;28;5038;-66
2023/01/01 08:43:47;;;;;;;;;;;;;;;;;;5006463;28;3467;-66
2023/01/01 08:46:12;;;;;;;;;;;;;;;;;;5003890;28;5049;-67
2023/01/01 08:48:38;;;;;;;;;;;;;;;;;;5003789;28;5159;-65
2023/01/01 08:51:03;;;;;;;;;;;;;;;;;;5004793;28;6044;-65
2023/01/01 08:53:28;;;;;;;;;;;;;;;;;;5003238;28;5053;-67
2023/01/01 08:56:00;;;;;;;;;;;;;;;;;;4996561;28;5103;-58
2023/01/01 08:58:26;;;;;;;;;;;;;;;;;;5002794;28;3576;-66
2023/01/01 09:00:52;;;;;;;;;;;;;;;;;;5004650;28;4699;-63
2023/01/01 09:03:17;;;;;;;;;;;;;;;;;;5001249;28;5042;-61
2023/01/01 09:05:44;;;;;;;;;;;;;;;;;;5006431;28;5435;-65
2023/01/01 09:08:10;;;;;;;;;;;;;;;;;;5006440;28;5411;-68
2023/01/01 09:10:35;;;;;;;;;;;;;;;;;;4995330;28;3533;-67
2023/01/01 09:13:00;;;;;;;;;;;;;;;;;;4995090;28;4585;-67
2023/01/01 09:15:26;;;;;;;;;;;;;;;;;;4994999;28;5211;-66
2023/01/01 09:17:51;;;;;;;;;;;;;;;;;;4989595;28;4769;-65
2023/01/01 09:20:16;;;;;;;;;;;;;;;;;;5000446;28;4718;-69
2023/01/01 09:22:41;;;;;;;;;;;;;;;;;;4998241;28;3316;-70
2023/01/01 09:25:07;;;;;;;;;;;;;;;;;;4996481;28;5129;-71
2023/01/01 09:27:32;;;;;;;;;;;;;;;;;;4996132;28;4997;-66
2023/01/01 09:29:58;;;;;;;;;;;;;;;;;;4994849;28;4678;-69
2023/01/01 09:32:23;;;;;;;;;;;;;;;;;;4995423;28;4731;-70
2023/01/01 09:34:50;;;;;;;;;;;;;;;;;;4999839;28;3184;-64
2023/01/01 09:37:15;;;;;;;;;;;;;;;;;;4994600;28;4546;-71
2023/01/01 09:39:40;;;;;;;;;;;;;;;;;;4995378;28;5195;-66
2023/01/01 09:42:18;;;;;;;;;;;;;;;;;;4987168;28;5118;-67
2023/01/01 09:44:55;;;;;;;;;;;;;;;;;;5001148;28;4902;-67
2023/01/01 09:47:29;;;;;;;;;;;;;;;;;;4997979;28;5149;-67
2023/01/01 09:49:55;;;;;;;;;;;;;;;;;;5000173;28;5105;-67
2023/01/01 09:52:21;;;;;;;;;;;;;;;;;;4997172;28;3575;-68
2023/01/01 09:54:51;;;;;;;;;;;;;;;;;;5006320;28;5262;-65
2023/01/01 09:57:16;;;;;;;;;;;;;;;;;;5000171;28;4962;-65
2023/01/01 09:59:42;;;;;;;;;;;;;;;;;;5002327;28;5335;-66
2023/01/01 10:02:25;;;;;;;;;;;;;;;;;;4999408;28;5322;-67
2023/01/01 10:04:53;;;;;;;;;;;;;;;;;;4995396;28;3595;-68
2023/01/01 10:07:25;;;;;;;;;;;;;;;;;;4997977;28;5724;-60
2023/01/01 10:10:00;;;;;;;;;;;;;;;;;;5002454;28;4683;-66
2023/01/01 10:12:31;;;;;;;;;;;;;;;;;;4997877;28;5052;-66
2023/01/01 10:15:00;;;;;;;;;;;;;;;;;;4999481;28;4691;-66
2023/01/01 10:17:33;;;;;;;;;;;;;;;;;;4995251;28;5312;-68
2023/01/01 10:20:03;;;;;;;;;;;;;;;;;;5004587;28;4570;-65
2023/01/01 10:22:39;;;;;;;;;;;;;;;;;;4998361;28;1124;-68
2023/01/01 10:25:13;;;;;;;;;;;;;;;;;;4999209;28;5819;-66
2023/01/01 10:27:40;;;;;;;;;;;;;;;;;;5002248;28;5116;-68
2023/01/01 10:30:13;;;;;;;;;;;;;;;;;;4999633;28;5236;-67
2023/01/01 10:32:39;;;;;;;;;;;;;;;;;;4997323;28;5052;-66
2023/01/01 10:35:10;;;;;;;;;;;;;;;;;;4999254;28;5178;-66
2023/01/01 10:37:35;;;;;;;;;;;;;;;;;;4996729;28;1263;-67
2023/01/01 10:40:05;;;;;;;;;;;;;;;;;;5000660;28;4677;-60
2023/01/01 10:42:30;;;;;;;;;;;;;;;;;;5006635;28;5138;-67
2023/01/01 10:44:56;;;;;;;;;;;;;;;;;;4999365;28;4940;-64
2023/01/01 10:47:23;;;;;;;;;;;;;;;;;;5000618;28;5088;-68
2023/01/01 10:49:55;;;;;;;;;;;;;;;;;;5004687;28;1167;-67
2023/01/01 10:52:22;;;;;;;;;;;;;;;;;;4993243;28;5281;-67
2023/01/01 10:54:47;;;;;;;;;;;;;;;;;;4990981;28;5130;-67
2023/01/01 10:57:17;;;;;;;;;;;;;;;;;;4996577;28;4631;-66
2023/01/01 10:59:43;;;;;;;;;;;;;;;;;;4973159;28;5128;-64
2023/01/01 11:02:29;;;;;;;;;;;;;;;;;;5003084;28;4930;-64
2023/01/01 11:05:15;;;;;;;;;;;;;;;;;;4996785;28;4605;-62
2023/01/01 11:07:40;;;;;;;;;;;;;;;;;;4975382;28;3268;-67
2023/01/01 11:10:05;;;;;;;;;;;;;;;;;;4980106;28;4510;-63
2023/01/01 11:12:34;;;;;;;;;;;;;;;;;;4975825;28;5592;-66
2023/01/01 11:15:00;;;;;;;;;;;;;;;;;;4995336;28;5434;-67
2023/01/01 11:17:28;;;;;;;;;;;;;;;;;;4979236;28;5039;-64
2023/01/01 11:19:54;;;;;;;;;;;;;;;;;;4985091;28;4487;-64
2023/01/01 11:22:35;;;;;;;;;;;;;;;;;;5003926;28;4992;-66
2023/01/01 11:25:01;;;;;;;;;;;;;;;;;;4994354;28;4558;-67
2023/01/01 11:27:26;;;;;;;;;;;;;;;;;;4996183;28;5222;-69
2023/01/01 11:29:53;;;;;;;;;;;;;;;;;;4998058;28;4510;-66
2023/01/01 11:32:20;;;;;;;;;;;;;;;;;;5003351;28;4636;-64
2023/01/01 11:34:45;;;;;;;;;;;;;;;;;;4994761;28;1217;-67
2023/01/01 11:37:14;;;;;;;;;;;;;;;;;;4993443;28;4484;-63
2023/01/01 11:39:43;;;;;;;;;;;;;;;;;;4995357;28;5310;-66
2023/01/01 11:42:08;;;;;;;;;;;;;;;;;;4998403;28;4646;-67
2023/01/01 11:44:33;;;;;;;;;;;;;;;;;;5008109;28;5122;-64
2023/01/01 11:46:59;;;;;;;;;;;;;;;;;;5001772;28;5040;-62
2023/01/01 11:49:24;;;;;;;;;;;;;;;;;;5000989;28;3485;-63
2023/01/01 11:51:50;;;;;;;;;;;;;;;;;;4988882;28;4924;-58
2023/01/01 11:54:18;;;;;;;;;;;;;;;;;;4995041;28;5068;-58
2023/01/01 11:56:43;;;;;;;;;;;;;;;;;;4995931;28;4792;-58
2023/01/01 11:59:11;;;;;;;;;;;;;;;;;;4994199;28;5092;-59
2023/01/01 12:01:46;;;;;;;;;;;;;;;;;;4999616;28;3391;-59
2023/01/01 12:04:32;;;;;;;;;;;;;;;;;;5000440;28;5048;-59
2023/01/01 12:07:07;;;;;;;;;;;;;;;;;;4980840;28;5152;-59
2023/01/01 12:09:35;;;;;;;;;;;;;;;;;;5000938;28;5094;-59
2023/01/01 12:12:00;;;;;;;;;;;;;;;;;;4997830;28;4642;-58
2023/01/01 12:14:44;;;;;;;;;;;;;;;;;;4989951;28;5110;-58
2023/01/01 12:17:19;;;;;;;;;;;;;;;;;;5004809;28;4868;-58
2023/01/01 12:19:51;;;;;;;;;;;;;;;;;;4992950;28;4768;-57
2023/01/01 12:22:17;;;;;;;;;;;;;;;;;;4992298;28;4846;-58
2023/01/01 12:24:42;;;;;;;;;;;;;;;;;;4993347;28;5059;-59
2023/01/01 12:27:26;;;;;;;;;;;;;;;;;;4989858;28;4622;-57
2023/01/01 12:30:05;;;;;;;;;;;;;;;;;;4982643;28;4605;-58
2023/01/01 12:32:33;;;;;;;;;;;;;;;;;;4971260;28;5286;-61
2023/01/01 12:35:17;;;;;;;;;;;;;;;;;;4978880;28;5329;-61
2023/01/01 12:37:47;;;;;;;;;;;;;;;;;;4976900;28;3608;-61
2023/01/01 12:40:32;;;;;;;;;;;;;;;;;;4981051;28;5009;-59
2023/01/01 12:43:03;;;;;;;;;;;;;;;;;;5001794;28;4752;-60
2023/01/01 12:45:32;;;;;;;;;;;;;;;;;;4992121;28;5030;-61
2023/01/01 12:48:16;;;;;;;;;;;;;;;;;;4986246;28;5133;-62
2023/01/01 12:50:44;;;;;;;;;;;;;;;;;;5000512;28;5090;-64
2023/01/01 12:53:19;;;;;;;;;;;;;;;;;;5002408;28;4693;-58
2023/01/01 12:55:59;;;;;;;;;;;;;;;;;;5002105;28;3378;-58
2023/01/01 12:58:34;;;;;;;;;;;;;;;;;;4995353;28;4637;-60
2023/01/01 13:01:03;;;;;;;;;;;;;;;;;;4996966;28;4817;-59
2023/01/01 13:03:32;;;;;;;;;;;;;;;;;;4993307;28;5270;-60
2023/01/01 13:05:57;;;;;;;;;;;;;;;;;;5004475;28;5317;-60
2023/01/01 13:08:23;;;;;;;;;;;;;;;;;;4999619;28;5047;-60
2023/01/01 13:10:49;;;;;;;;;;;;;;;;;;5004440;28;3291;-61
2023/01/01 13:13:14;;;;;;;;;;;;;;;;;;5005466;28;4582;-60
2023/01/01 13:15:40;;;;;;;;;;;;;;;;;;5011149;28;4981;-60
2023/01/01 13:18:06;;;;;;;;;;;;;;;;;;5005729;28;4621;-60
2023/01/01 13:20:32;;;;;;;;;;;;;;;;;;5006671;28;5086;-60
2023/01/01 13:22:57;;;;;;;;;;;;;;;;;;4989785;28;5141;-61
2023/01/01 13:25:22;;;;;;;;;;;;;;;;;;5001743;28;3388;-61
2023/01/01 13:28:02;;;;;;;;;;;;;;;;;;5008564;28;4472;-60
2023/01/01 13:30:45;;;;;;;;;;;;;;;;;;5003603;28;4941;-60
2023/01/01 13:33:17;;;;;;;;;;;;;;;;;;5006374;28;4435;-61
2023/01/01 13:35:42;;;;;;;;;;;;;;;;;;5006848;28;5442;-61
2023/01/01 13:38:27;;;;;;;;;;;;;;;;;;5008831;28;5100;-61
2023/01/01 13:40:53;;;;;;;;;;;;;;;;;;5000532;28;3144;-60
2023/01/01 13:43:18;;;;;;;;;;;;;;;;;;5007932;28;4929;-60
2023/01/01 13:45:44;;;;;;;;;;;;;;;;;;5003792;28;4949;-60
2023/01/01 13:48:15;;;;;;;;;;;;;;;;;;5003149;28;5047;-61
2023/01/01 13:50:55;;;;;;;;;;;;;;;;;;5008073;28;4590;-61
2023/01/01 13:53:21;;;;;;;;;;;;;;;;;;5005641;28;4710;-60
2023/01/01 13:55:49;;;;;;;;;;;;;;;;;;4989275;28;3602;-60
2023/01/01 13:58:26;;;;;;;;;;;;;;;;;;4990278;28;4405;-60
2023/01/01 14:01:10;;;;;;;;;;;;;;;;;;4989187;28;4924;-60
2023/01/01 14:03:46;;;;;;;;;;;;;;;;;;4999149;28;5062;-61
2023/01/01 14:06:13;;;;;;;;;;;;;;;;;;5006650;28;4967;-61
2023/01/01 14:08:39;;;;;;;;;;;;;;;;;;5005733;28;4870;-60
2023/01/01 14:11:20;;;;;;;;;;;;;;;;;;5009068;28;4846;-60
2023/01/01 14:13:45;;;;;;;;;;;;;;;;;;5008742;28;1289;-61
2023/01/01 14:16:13;;;;;;;;;;;;;;;;;;5008322;28;5114;-61
2023/01/01 14:18:42;;;;;;;;;;;;;;;;;;5009662;28;4663;-60
2023/01/01 14:21:11;;;;;;;;;;;;;;;;;;5008078;28;5036;-61
2023/01/01 14:23:38;;;;;;;;;;;;;;;;;;5001449;28;4507;-60
2023/01/01 14:26:07;;;;;;;;;;;;;;;;;;4986136;28;5041;-61
2023/01/01 14:28:33;;;;;;;;;;;;;;;;;;5008458;28;1277;-61
2023/01/01 14:30:59;;;;;;;;;;;;;;;;;;5001708;28;5052;-60
2023/01/01 14:33:26;;;;;;;;;;;;;;;;;;5003283;28;4493;-61
2023/01/01 14:35:55;;;;;;;;;;;;;;;;;;5013417;28;5026;-61
2023/01/01 14:38:27;;;;;;;;;;;;;;;;;;5001814;28;4871;-61
2023/01/01 14:40:59;;;;;;;;;;;;;;;;;;4992435;28;1098;-61
2023/01/01 14:43:24;;;;;;;;;;;;;;;;;;5008974;28;5020;-61
2023/01/01 14:45:52;;;;;;;;;;;;;;;;;;5005217;28;5065;-61
2023/01/01 14:48:18;;;;;;;;;;;;;;;;;;5000647;28;4988;-60
2023/01/01 14:50:45;;;;;;;;;;;;;;;;;;5007538;28;5018;-61
2023/01/01 14:53:12;;;;;;;;;;;;;;;;;;5008130;28;5101;-60
2023/01/01 14:55:41;;;;;;;;;;;;;;;;;;5007611;28;1183;-61
2023/01/01 14:58:08;;;;;;;;;;;;;;;;;;5006301;28;4582;-61
2023/01/01 15:00:33;;;;;;;;;;;;;;;;;;5005693;28;5090;-61
2023/01/01 15:03:06;;;;;;;;;;;;;;;;;;4995931;28;4729;-58
2023/01/01 15:05:32;;;;;;;;;;;;;;;;;;5008206;28;5002;-59
2023/01/01 15:07:58;;;;;;;;;;;;;;;;;;5005954;28;5070;-58
2023/01/01 15:10:26;;;;;;;;;;;;;;;;;;4989163;28;3517;-62
2023/01/01 15:12:52;;;;;;;;;;;;;;;;;;5009676;28;4495;-64
2023/01/01 15:15:36;;;;;;;;;;;;;;;;;;5007211;28;4782;-56
2023/01/01 15:18:01;;;;;;;;;;;;;;;;;;4996126;28;4575;-55
2023/01/01 15:20:26;;;;;;;;;;;;;;;;;;5005426;28;5101;-56
2023/01/01 15:22:52;;;;;;;;;;;;;;;;;;4999061;28;3422;-56
2023/01/01 15:25:17;;;;;;;;;;;;;;;;;;4995907;28;4998;-59
2023/01/01 15:27:46;;;;;;;;;;;;;;;;;;5021234;28;4828;-56
2023/01/01 15:30:41;;;;;;;;;;;;;;;;;;5000513;28;4567;-56
2023/01/01 15:33:07;;;;;;;;;;;;;;;;;;4989627;28;5106;-55
2023/01/01 15:35:32;;;;;;;;;;;;;;;;;;5008460;28;5362;-55
2023/01/01 15:38:18;;;;;;;;;;;;;;;;;;5001283;28;5091;-55
2023/01/01 15:40:43;;;;;;;;;;;;;;;;;;5007904;28;1355;-59
2023/01/01 15:43:13;;;;;;;;;;;;;;;;;;5010845;28;4596;-55
2023/01/01 15:45:38;;;;;;;;;;;;;;;;;;4999500;28;5275;-58
2023/01/01 15:48:03;;;;;;;;;;;;;;;;;;5009391;28;5135;-55
2023/01/01 15:50:35;;;;;;;;;;;;;;;;;;5008628;28;5019;-62
2023/01/01 15:53:02;;;;;;;;;;;;;;;;;;5002876;28;4970;-56
2023/01/01 15:55:28;;;;;;;;;;;;;;;;;;4997578;28;3446;-59
2023/01/01 15:57:53;;;;;;;;;;;;;;;;;;5005034;28;4641;-55
2023/01/01 16:00:20;;;;;;;;;;;;;;;;;;5004920;28;4703;-55
2023/01/01 16:02:45;;;;;;;;;;;;;;;;;;5007166;28;5035;-58
2023/01/01 16:05:17;;;;;;;;;;;;;;;;;;5008674;28;4441;-57
2023/01/01 16:07:42;;;;;;;;;;;;;;;;;;5005524;28;3467;-54
2023/01/01 16:10:14;;;;;;;;;;;;;;;;;;5008172;28;5093;-55
2023/01/01 16:12:40;;;;;;;;;;;;;;;;;;5009112;28;4867;-58
2023/01/01 16:15:05;;;;;;;;;;;;;;;;;;5011248;28;4615;-60
2023/01/01 16:17:31;;;;;;;;;;;;;;;;;;5008340;28;4982;-56
2023/01/01 16:19:56;;;;;;;;;;;;;;;;;;5008833;28;5093;-56
2023/01/01 16:22:21;;;;;;;;;;;;;;;;;;5003898;28;3255;-59
2023/01/01 16:24:46;;;;;;;;;;;;;;;;;;5008888;28;4465;-55
2023/01/01 16:27:12;;;;;;;;;;;;;;;;;;5004119;28;4840;-62
2023/01/01 16:29:37;;;;;;;;;;;;;;;;;;5007655;28;4991;-56
2023/01/01 16:32:02;;;;;;;;;;;;;;;;;;5002396;28;5042;-63
2023/01/01 16:34:28;;;;;;;;;;;;;;;;;;4999008;28;3425;-56
2023/01/01 16:36:53;;;;;;;;;;;;;;;;;;5010111;28;4973;-53
2023/01/01 16:39:18;;;;;;;;;;;;;;;;;;5010517;28;4437;-56
2023/01/01 16:41:43;;;;;;;;;;;;;;;;;;5011390;28;4974;-52
2023/01/01 16:44:10;;;;;;;;;;;;;;;;;;5011799;28;4542;-53
2023/01/01 16:46:35;;;;;;;;;;;;;;;;;;5009144;28;3389;-56
2023/01/01 16:49:00;;;;;;;;;;;;;;;;;;5014138;28;5100;-56
2023/01/01 16:51:27;;;;;;;;;;;;;;;;;;5011211;28;5220;-55
2023/01/01 16:53:52;;;;;;;;;;;;;;;;;;5010694;28;4664;-55
2023/01/01 16:56:17;;;;;;;;;;;;;;;;;;5008559;28;4648;-59
2023/01/01 16:58:42;;;;;;;;;;;;;;;;;;5009888;28;3668;-54
2023/01/01 17:01:08;;;;;;;;;;;;;;;;;;5006056;28;4656;-56
2023/01/01 17:03:33;;;;;;;;;;;;;;;;;;5005071;28;4825;-56
2023/01/01 17:06:01;;;;;;;;;;;;;;;;;;5010448;28;4784;-55
2023/01/01 17:08:27;;;;;;;;;;;;;;;;;;5008663;28;4894;-54
2023/01/01 17:11:00;;;;;;;;;;;;;;;;;;5004564;28;3246;-55